Nymore, Minnesota
Current Conditions -  °F | °C
As of 11:34 PM on Sunday 21 Dec 2014 (Local Time) from KBJI Reporting Station
Haze Haze  
Wind Chill: 26°   Ceiling: 400
Heat Index: 33°   Visibility: 5mi
Dew Point: 32°   Wind: 8mph
Humidity: 97%   Direction: 130°SE
Pressure: 29.6"   Gusts: NA
Location:  47.5271°N, 94.7611°W
Report Text: KBJI 220534Z AUTO 13007KT 5SM BR OVC004 00/00 A2960 RMK AO2 T00040000
Loading
Personal Weather Stations






























Interactive Weather Map New forecast layout! Learn more

10-Day Weather Forecast

Advertisements
Track Severe Weather on mobile